Time;durP1;ratioP1;P1;durP2;ratioP2;P2;SDS_P1;SDS_P2;PMS_P1;PMS_P2;Temp;Humidity;BMP_temperature;BMP_pressure;BME280_temperature;BME280_humidity;BME280_pressure;Samples;Min_cycle;Max_cycle;Signal;HPM_P1;HPM_P2
2022/05/22 00:01:22;;;;;;;;;;;24.50;45.00;;;;;;5077898;28;19959;-63
2022/05/22 00:03:48;;;;;;;;;;;24.50;45.10;;;;;;5077619;28;20299;-63
2022/05/22 00:06:13;;;;;;;;;;;24.50;45.10;;;;;;5078980;28;19908;-63
2022/05/22 00:08:39;;;;;;;;;;;24.50;45.10;;;;;;5079329;28;19918;-63
2022/05/22 00:11:04;;;;;;;;;;;24.50;45.10;;;;;;5076514;28;19908;-63
2022/05/22 00:13:30;;;;;;;;;;;24.50;45.10;;;;;;5075511;28;19912;-63
2022/05/22 00:18:39;;;;;;;;;;;24.50;45.10;;;;;;5075788;28;19915;-63
2022/05/22 00:21:05;;;;;;;;;;;24.50;45.20;;;;;;5075891;28;20344;-63
2022/05/22 00:23:33;;;;;;;;;;;24.40;45.10;;;;;;5075919;28;20352;-63
2022/05/22 00:25:58;;;;;;;;;;;24.40;45.20;;;;;;5075740;28;20007;-63
2022/05/22 00:28:24;;;;;;;;;;;24.40;45.20;;;;;;5075604;28;19947;-63
2022/05/22 00:30:49;;;;;;;;;;;24.50;45.20;;;;;;5075463;28;19912;-63
2022/05/22 00:33:15;;;;;;;;;;;24.50;45.20;;;;;;5075431;28;19908;-63
2022/05/22 00:35:40;;;;;;;;;;;24.50;45.10;;;;;;5075379;28;19963;-63
2022/05/22 00:38:06;;;;;;;;;;;24.50;45.10;;;;;;5075724;28;19963;-63
2022/05/22 00:40:31;;;;;;;;;;;24.50;45.20;;;;;;5075257;28;19908;-63
2022/05/22 00:42:57;;;;;;;;;;;24.50;45.10;;;;;;5075272;28;19909;-63
2022/05/22 00:45:23;;;;;;;;;;;24.50;45.10;;;;;;5075567;28;19909;-63
2022/05/22 00:47:51;;;;;;;;;;;24.50;45.10;;;;;;5075522;28;19908;-63
2022/05/22 00:50:17;;;;;;;;;;;24.50;45.10;;;;;;5075481;28;19995;-63
2022/05/22 00:52:43;;;;;;;;;;;24.50;45.10;;;;;;5074251;28;19997;-63
2022/05/22 00:55:13;;;;;;;;;;;24.50;45.20;;;;;;5073798;28;19908;-63
2022/05/22 00:57:40;;;;;;;;;;;24.40;45.10;;;;;;5073866;28;19952;-63
2022/05/22 01:00:07;;;;;;;;;;;24.40;45.20;;;;;;5073885;28;19916;-63
2022/05/22 01:03:26;;;;;;;;;;;24.40;45.20;;;;;;5074962;28;19958;-63
2022/05/22 01:05:18;;;;;;;;;;;24.40;45.20;;;;;;5074600;28;19982;-63
2022/05/22 01:07:44;;;;;;;;;;;24.40;45.20;;;;;;5075358;28;19908;-63
2022/05/22 01:10:09;;;;;;;;;;;24.40;45.10;;;;;;5075009;28;19916;-63
2022/05/22 01:12:35;;;;;;;;;;;24.50;45.20;;;;;;5074761;28;19915;-63
2022/05/22 01:15:00;;;;;;;;;;;24.40;45.20;;;;;;5073480;28;19987;-63
2022/05/22 01:17:26;;;;;;;;;;;24.40;45.20;;;;;;5073272;28;20381;-63
2022/05/22 01:19:58;;;;;;;;;;;24.40;45.10;;;;;;5074455;28;19908;-63
2022/05/22 01:22:23;;;;;;;;;;;24.40;45.10;;;;;;5073466;28;19932;-63
2022/05/22 01:24:49;;;;;;;;;;;24.50;45.20;;;;;;5074435;28;19909;-63
2022/05/22 01:27:15;;;;;;;;;;;24.40;45.20;;;;;;5074536;28;19908;-63
2022/05/22 01:29:40;;;;;;;;;;;24.40;45.80;;;;;;5074341;28;19916;-63
2022/05/22 01:32:06;;;;;;;;;;;24.40;45.20;;;;;;5074574;28;19908;-63
2022/05/22 01:34:31;;;;;;;;;;;24.40;45.30;;;;;;5074538;28;19908;-63
2022/05/22 01:36:56;;;;;;;;;;;24.30;45.30;;;;;;5074056;28;19913;-63
2022/05/22 01:39:22;;;;;;;;;;;24.30;45.30;;;;;;5074400;28;19908;-63
2022/05/22 01:41:47;;;;;;;;;;;24.30;45.40;;;;;;5074065;28;19908;-64
2022/05/22 01:44:13;;;;;;;;;;;24.30;45.20;;;;;;5074301;28;19908;-64
2022/05/22 01:46:38;;;;;;;;;;;24.30;45.20;;;;;;5074082;28;19915;-63
2022/05/22 01:49:04;;;;;;;;;;;24.40;45.30;;;;;;5073897;28;19954;-63
2022/05/22 01:51:32;;;;;;;;;;;24.30;45.20;;;;;;5074013;28;19913;-63
2022/05/22 01:54:01;;;;;;;;;;;24.30;45.20;;;;;;5072765;28;19908;-64
2022/05/22 01:56:28;;;;;;;;;;;24.30;45.20;;;;;;5074050;28;19919;-63
2022/05/22 01:58:53;;;;;;;;;;;24.30;45.20;;;;;;5073806;28;20331;-63
2022/05/22 02:01:18;;;;;;;;;;;24.30;45.30;;;;;;5073806;28;19908;-63
2022/05/22 02:03:44;;;;;;;;;;;24.30;45.30;;;;;;5073381;28;20284;-63
2022/05/22 02:06:09;;;;;;;;;;;24.30;45.30;;;;;;5073684;28;19919;-63
2022/05/22 02:08:35;;;;;;;;;;;24.30;45.20;;;;;;5073985;28;19908;-63
2022/05/22 02:11:02;;;;;;;;;;;24.30;45.30;;;;;;5073807;28;19908;-63
2022/05/22 02:13:29;;;;;;;;;;;24.30;45.40;;;;;;5073614;28;19909;-63
2022/05/22 02:15:55;;;;;;;;;;;24.30;45.50;;;;;;5073423;28;19958;-63
2022/05/22 02:18:20;;;;;;;;;;;24.30;45.40;;;;;;5073676;28;19912;-63
2022/05/22 02:20:47;;;;;;;;;;;24.30;45.40;;;;;;5073562;28;19916;-63
2022/05/22 02:23:13;;;;;;;;;;;24.30;45.40;;;;;;5055664;28;19908;-63
2022/05/22 02:25:41;;;;;;;;;;;24.30;45.40;;;;;;5072268;28;19912;-63
2022/05/22 02:28:07;;;;;;;;;;;24.30;45.40;;;;;;5072116;28;20409;-63
2022/05/22 02:30:33;;;;;;;;;;;24.30;45.30;;;;;;5073641;28;19909;-63
2022/05/22 02:32:59;;;;;;;;;;;24.30;45.40;;;;;;5073213;28;19908;-63
2022/05/22 02:35:25;;;;;;;;;;;24.20;45.40;;;;;;5072685;28;19909;-63
2022/05/22 02:37:51;;;;;;;;;;;24.20;45.40;;;;;;5073520;28;19913;-63
2022/05/22 02:40:18;;;;;;;;;;;24.20;45.40;;;;;;5071929;28;20303;-63
2022/05/22 02:42:44;;;;;;;;;;;24.20;45.40;;;;;;5071804;28;19908;-63
2022/05/22 02:45:09;;;;;;;;;;;24.20;45.40;;;;;;5073106;28;19909;-64
2022/05/22 02:47:35;;;;;;;;;;;24.20;45.50;;;;;;5073207;28;19908;-63
2022/05/22 02:50:00;;;;;;;;;;;24.20;45.40;;;;;;5071756;28;19912;-63
2022/05/22 02:52:26;;;;;;;;;;;24.20;45.40;;;;;;5055093;28;19908;-63
2022/05/22 02:54:51;;;;;;;;;;;24.20;45.40;;;;;;5072993;28;19920;-63
2022/05/22 02:57:21;;;;;;;;;;;24.20;45.40;;;;;;5055019;28;20330;-63
2022/05/22 02:59:47;;;;;;;;;;;24.20;45.50;;;;;;5073105;28;19909;-63
2022/05/22 03:02:12;;;;;;;;;;;24.20;45.50;;;;;;5073000;28;19935;-63
2022/05/22 03:04:38;;;;;;;;;;;24.10;45.40;;;;;;5071603;28;20003;-63
2022/05/22 03:07:03;;;;;;;;;;;24.10;45.40;;;;;;5072976;28;19908;-63
2022/05/22 03:09:30;;;;;;;;;;;24.10;45.40;;;;;;5073241;28;19915;-63
2022/05/22 03:11:57;;;;;;;;;;;24.10;45.50;;;;;;5073172;28;19996;-63
2022/05/22 03:14:22;;;;;;;;;;;24.10;45.50;;;;;;5072907;28;19908;-63
2022/05/22 03:16:48;;;;;;;;;;;24.10;45.50;;;;;;5072848;28;20007;-63
2022/05/22 03:19:14;;;;;;;;;;;24.10;45.50;;;;;;5072810;28;19908;-63
2022/05/22 03:21:41;;;;;;;;;;;24.10;45.50;;;;;;5073053;28;19919;-63
2022/05/22 03:24:06;;;;;;;;;;;24.10;45.50;;;;;;5072792;28;20319;-63
2022/05/22 03:26:32;;;;;;;;;;;24.10;45.60;;;;;;5071609;28;19909;-63
2022/05/22 03:28:57;;;;;;;;;;;24.10;45.60;;;;;;5071450;28;19909;-63
2022/05/22 03:31:23;;;;;;;;;;;24.10;45.50;;;;;;5072657;28;19909;-63
2022/05/22 03:33:48;;;;;;;;;;;24.10;45.60;;;;;;5072816;28;19909;-63
2022/05/22 03:36:14;;;;;;;;;;;24.10;45.60;;;;;;5072680;28;19912;-63
2022/05/22 03:38:39;;;;;;;;;;;24.10;45.60;;;;;;5073013;28;19909;-63
2022/05/22 03:41:05;;;;;;;;;;;24.00;45.50;;;;;;5072541;28;19912;-63
2022/05/22 03:43:30;;;;;;;;;;;24.00;45.60;;;;;;5072609;28;19908;-62
2022/05/22 03:45:56;;;;;;;;;;;24.00;45.50;;;;;;5072588;28;20308;-63
2022/05/22 03:48:21;;;;;;;;;;;24.10;45.60;;;;;;5075960;28;19940;-63
2022/05/22 03:50:48;;;;;;;;;;;24.10;45.60;;;;;;5076294;28;19908;-63
2022/05/22 03:53:13;;;;;;;;;;;24.00;45.50;;;;;;5076256;28;20414;-63
2022/05/22 03:55:39;;;;;;;;;;;24.10;45.60;;;;;;5076132;28;19913;-63
2022/05/22 03:58:04;;;;;;;;;;;24.00;45.50;;;;;;5076107;28;19909;-63
2022/05/22 04:00:30;;;;;;;;;;;24.10;45.60;;;;;;5076138;28;19912;-63
2022/05/22 04:02:56;;;;;;;;;;;24.10;45.60;;;;;;5075912;28;19909;-63
2022/05/22 04:05:21;;;;;;;;;;;24.10;45.60;;;;;;5075919;28;19932;-63
2022/05/22 04:07:47;;;;;;;;;;;24.00;45.50;;;;;;5076162;28;20273;-64
2022/05/22 04:10:13;;;;;;;;;;;24.10;45.60;;;;;;5057879;28;19915;-64
2022/05/22 04:12:38;;;;;;;;;;;24.10;45.60;;;;;;5074651;28;19912;-64
2022/05/22 04:15:05;;;;;;;;;;;24.00;45.50;;;;;;5075901;28;19915;-63
2022/05/22 04:17:30;;;;;;;;;;;24.00;45.50;;;;;;5075638;28;19966;-63
2022/05/22 04:19:55;;;;;;;;;;;24.10;45.60;;;;;;5075640;28;20310;-63
2022/05/22 04:22:21;;;;;;;;;;;24.10;45.60;;;;;;5075640;28;19915;-63
2022/05/22 04:27:30;;;;;;;;;;;24.00;45.50;;;;;;5075751;28;19919;-63
2022/05/22 04:29:55;;;;;;;;;;;24.00;45.50;;;;;;5075544;28;19908;-63
2022/05/22 04:32:21;;;;;;;;;;;24.00;45.70;;;;;;5075491;28;19945;-63
2022/05/22 04:34:46;;;;;;;;;;;24.00;45.70;;;;;;5074271;28;19909;-63
2022/05/22 04:37:12;;;;;;;;;;;24.00;45.70;;;;;;5074164;28;19995;-63
2022/05/22 04:39:37;;;;;;;;;;;24.00;45.70;;;;;;5075589;28;19908;-63
2022/05/22 04:42:03;;;;;;;;;;;24.00;45.60;;;;;;5075353;28;19938;-63
2022/05/22 04:44:28;;;;;;;;;;;24.00;45.60;;;;;;5075263;28;20008;-63
2022/05/22 04:46:54;;;;;;;;;;;24.00;45.60;;;;;;5075293;28;19909;-63
2022/05/22 04:49:21;;;;;;;;;;;24.00;45.70;;;;;;5074776;28;21285;-63
2022/05/22 04:51:47;;;;;;;;;;;24.00;45.60;;;;;;5075105;28;20011;-63
2022/05/22 04:54:12;;;;;;;;;;;24.00;45.60;;;;;;5073827;28;19913;-63
2022/05/22 04:56:38;;;;;;;;;;;24.00;45.60;;;;;;5075363;28;19965;-63
2022/05/22 04:59:03;;;;;;;;;;;24.00;45.70;;;;;;5074567;28;19931;-63
2022/05/22 05:01:29;;;;;;;;;;;24.00;45.70;;;;;;5075092;28;20003;-63
2022/05/22 05:03:54;;;;;;;;;;;24.00;45.70;;;;;;5074892;28;19928;-62
2022/05/22 05:06:20;;;;;;;;;;;24.00;45.70;;;;;;5074897;28;19916;-63
2022/05/22 05:08:45;;;;;;;;;;;24.00;45.70;;;;;;5075117;28;20007;-63
2022/05/22 05:11:11;;;;;;;;;;;24.00;45.70;;;;;;5073644;28;19912;-63
2022/05/22 05:13:37;;;;;;;;;;;24.00;45.70;;;;;;5056861;28;19909;-63
2022/05/22 05:16:04;;;;;;;;;;;24.00;45.70;;;;;;5074707;28;19913;-63
2022/05/22 05:18:29;;;;;;;;;;;24.00;45.70;;;;;;5074702;28;19908;-63
2022/05/22 05:20:55;;;;;;;;;;;23.90;45.70;;;;;;5074605;28;19956;-63
2022/05/22 05:23:20;;;;;;;;;;;24.00;45.60;;;;;;5074557;28;19912;-63
2022/05/22 05:25:46;;;;;;;;;;;24.00;45.60;;;;;;5073331;28;19913;-63
2022/05/22 05:28:11;;;;;;;;;;;24.00;45.70;;;;;;5074523;28;19999;-63
2022/05/22 05:30:36;;;;;;;;;;;24.00;45.60;;;;;;5074362;28;19916;-63
2022/05/22 05:33:02;;;;;;;;;;;23.90;45.60;;;;;;5074345;28;19909;-63
2022/05/22 05:35:27;;;;;;;;;;;23.90;45.70;;;;;;5074236;28;19912;-63
2022/05/22 05:37:53;;;;;;;;;;;23.90;45.70;;;;;;5074535;28;19912;-63
2022/05/22 05:40:18;;;;;;;;;;;23.90;45.70;;;;;;5074427;28;19940;-63
2022/05/22 05:42:44;;;;;;;;;;;24.00;45.70;;;;;;5074209;28;19909;-63
2022/05/22 05:45:10;;;;;;;;;;;23.90;45.70;;;;;;5074103;28;19975;-63
2022/05/22 05:47:35;;;;;;;;;;;23.90;45.70;;;;;;5074099;28;19915;-63
2022/05/22 05:50:01;;;;;;;;;;;23.90;45.70;;;;;;5073908;28;19912;-63
2022/05/22 05:52:26;;;;;;;;;;;23.90;45.70;;;;;;5073956;28;19958;-63
2022/05/22 05:54:52;;;;;;;;;;;23.90;45.80;;;;;;5073919;28;19909;-63
2022/05/22 05:57:17;;;;;;;;;;;23.90;45.70;;;;;;5073934;28;20003;-63
2022/05/22 05:59:43;;;;;;;;;;;23.90;45.70;;;;;;5073732;28;19931;-63
2022/05/22 06:02:12;;;;;;;;;;;23.90;45.70;;;;;;5073887;28;19931;-63
2022/05/22 06:04:39;;;;;;;;;;;23.90;45.70;;;;;;5073584;28;19920;-63
2022/05/22 06:07:05;;;;;;;;;;;23.90;45.80;;;;;;5073699;28;19913;-63
2022/05/22 06:09:30;;;;;;;;;;;23.90;45.80;;;;;;5071933;28;19961;-63
2022/05/22 06:11:55;;;;;;;;;;;23.90;45.80;;;;;;5073540;28;19915;-63
2022/05/22 06:14:21;;;;;;;;;;;23.90;45.70;;;;;;5073623;28;19908;-63
2022/05/22 06:16:47;;;;;;;;;;;23.90;45.70;;;;;;5073455;28;20057;-63
2022/05/22 06:19:12;;;;;;;;;;;23.90;45.70;;;;;;5073771;28;19996;-63
2022/05/22 06:21:38;;;;;;;;;;;23.90;45.80;;;;;;5073436;28;19908;-63
2022/05/22 06:24:03;;;;;;;;;;;23.90;45.80;;;;;;5073421;28;19915;-63
2022/05/22 06:26:29;;;;;;;;;;;23.90;45.80;;;;;;5073306;28;20007;-64
2022/05/22 06:28:55;;;;;;;;;;;23.90;45.70;;;;;;5073309;28;19991;-64
2022/05/22 06:31:20;;;;;;;;;;;23.90;45.80;;;;;;5073286;28;19970;-63
2022/05/22 06:33:46;;;;;;;;;;;23.90;45.80;;;;;;5073237;28;19962;-63
2022/05/22 06:36:13;;;;;;;;;;;23.90;45.80;;;;;;5073544;28;19913;-63
2022/05/22 06:41:22;;;;;;;;;;;23.90;45.80;;;;;;5073178;28;20314;-63
2022/05/22 06:43:51;;;;;;;;;;;23.80;45.80;;;;;;5073112;28;20002;-63
2022/05/22 06:46:18;;;;;;;;;;;23.90;45.80;;;;;;5073475;28;19955;-63
2022/05/22 06:48:43;;;;;;;;;;;23.90;45.80;;;;;;5073288;28;20248;-63
2022/05/22 06:51:09;;;;;;;;;;;23.90;45.70;;;;;;5073133;28;19909;-63
2022/05/22 06:53:34;;;;;;;;;;;23.90;45.70;;;;;;5073380;28;19909;-63
2022/05/22 06:56:00;;;;;;;;;;;23.90;45.80;;;;;;5072983;28;19916;-63
2022/05/22 06:58:25;;;;;;;;;;;23.80;45.80;;;;;;5073052;28;20367;-64
2022/05/22 07:00:51;;;;;;;;;;;23.90;45.80;;;;;;5071779;28;19909;-64
2022/05/22 07:03:17;;;;;;;;;;;23.80;45.70;;;;;;5072436;28;19916;-63
2022/05/22 07:05:42;;;;;;;;;;;23.90;45.80;;;;;;5072972;28;20002;-63
2022/05/22 07:08:09;;;;;;;;;;;23.80;45.80;;;;;;5073183;28;20288;-63
2022/05/22 07:13:18;;;;;;;;;;;23.90;45.80;;;;;;5071926;28;19986;-63
2022/05/22 07:15:44;;;;;;;;;;;23.80;45.80;;;;;;5072661;28;19916;-62
2022/05/22 07:18:09;;;;;;;;;;;23.80;45.80;;;;;;5071864;28;19909;-63
2022/05/22 07:20:35;;;;;;;;;;;23.80;45.90;;;;;;5072940;28;20374;-63
2022/05/22 07:23:00;;;;;;;;;;;23.80;45.90;;;;;;5076732;28;20399;-63
2022/05/22 07:25:26;;;;;;;;;;;23.80;45.90;;;;;;5076725;28;19913;-63
2022/05/22 07:27:51;;;;;;;;;;;23.80;46.00;;;;;;5076720;28;19947;-63
2022/05/22 07:30:17;;;;;;;;;;;23.80;46.10;;;;;;5076616;28;19908;-63
2022/05/22 07:32:43;;;;;;;;;;;23.70;46.00;;;;;;5076604;28;20342;-63
2022/05/22 07:35:08;;;;;;;;;;;23.70;46.10;;;;;;5075406;28;19908;-63
2022/05/22 07:37:34;;;;;;;;;;;23.70;46.10;;;;;;5076622;28;20319;-63
2022/05/22 07:39:59;;;;;;;;;;;23.70;46.10;;;;;;5076508;28;20065;-63
2022/05/22 07:42:25;;;;;;;;;;;23.70;46.20;;;;;;5076344;28;19927;-63
2022/05/22 07:44:50;;;;;;;;;;;23.70;46.20;;;;;;5076128;28;19912;-63
2022/05/22 07:47:16;;;;;;;;;;;23.70;46.20;;;;;;5076312;28;20360;-63
2022/05/22 07:52:26;;;;;;;;;;;23.70;46.10;;;;;;5075318;28;19915;-63
2022/05/22 07:54:51;;;;;;;;;;;23.80;46.10;;;;;;5076311;28;19908;-63
2022/05/22 07:57:17;;;;;;;;;;;23.80;46.00;;;;;;5076063;28;19912;-63
2022/05/22 07:59:42;;;;;;;;;;;23.80;46.10;;;;;;5076079;28;19996;-63
2022/05/22 08:02:08;;;;;;;;;;;23.70;46.10;;;;;;5076105;28;19908;-63
2022/05/22 08:04:34;;;;;;;;;;;23.70;46.10;;;;;;5075574;28;19967;-63
2022/05/22 08:07:00;;;;;;;;;;;23.70;46.80;;;;;;5075992;28;19908;-63
2022/05/22 08:09:25;;;;;;;;;;;23.70;46.10;;;;;;5074992;28;19966;-63
2022/05/22 08:11:51;;;;;;;;;;;23.80;46.10;;;;;;5075815;28;20360;-63
2022/05/22 08:14:17;;;;;;;;;;;23.80;46.10;;;;;;5075839;28;20261;-63
2022/05/22 08:16:42;;;;;;;;;;;23.80;46.10;;;;;;5074685;28;20339;-63
2022/05/22 08:19:08;;;;;;;;;;;23.80;46.10;;;;;;5075998;28;19923;-63
2022/05/22 08:21:33;;;;;;;;;;;23.80;46.10;;;;;;5075765;28;19916;-63
2022/05/22 08:23:59;;;;;;;;;;;23.80;46.00;;;;;;5075417;28;19908;-63
2022/05/22 08:26:27;;;;;;;;;;;23.70;46.00;;;;;;5075968;28;19998;-63
2022/05/22 08:28:52;;;;;;;;;;;23.80;46.10;;;;;;5074299;28;20380;-63
2022/05/22 08:31:18;;;;;;;;;;;23.80;46.10;;;;;;5075646;28;19966;-63
2022/05/22 08:33:43;;;;;;;;;;;23.80;45.90;;;;;;5074668;28;20042;-64
2022/05/22 08:36:09;;;;;;;;;;;23.80;45.90;;;;;;5075387;28;20275;-64
2022/05/22 08:38:34;;;;;;;;;;;23.80;45.90;;;;;;5075697;28;19944;-64
2022/05/22 08:41:14;;;;;;;;;;;23.80;45.90;;;;;;5075340;28;19909;-63
2022/05/22 08:43:51;;;;;;;;;;;23.80;46.10;;;;;;5074362;28;19935;-63
2022/05/22 08:46:18;;;;;;;;;;;23.80;46.20;;;;;;5075224;28;19915;-63
2022/05/22 08:48:46;;;;;;;;;;;23.80;46.70;;;;;;5073929;28;20011;-63
2022/05/22 08:51:16;;;;;;;;;;;23.90;46.00;;;;;;5073896;28;19951;-63
2022/05/22 08:53:47;;;;;;;;;;;23.90;46.00;;;;;;5073832;28;19915;-63
2022/05/22 08:59:02;;;;;;;;;;;23.90;45.90;;;;;;5075048;28;20415;-63
2022/05/22 09:01:36;;;;;;;;;;;24.00;45.80;;;;;;5074005;28;20359;-63
2022/05/22 09:04:10;;;;;;;;;;;24.00;45.60;;;;;;5073480;28;19991;-63
2022/05/22 09:06:38;;;;;;;;;;;24.00;45.60;;;;;;5074981;28;19919;-63
2022/05/22 09:09:04;;;;;;;;;;;24.00;45.50;;;;;;5075200;28;20320;-63
2022/05/22 09:11:29;;;;;;;;;;;24.10;45.50;;;;;;5074871;28;19908;-64
2022/05/22 09:13:57;;;;;;;;;;;24.10;45.60;;;;;;5073334;28;20473;-64
2022/05/22 09:16:28;;;;;;;;;;;24.10;45.60;;;;;;5074680;28;19944;-63
2022/05/22 09:19:05;;;;;;;;;;;24.00;45.50;;;;;;5074582;28;19916;-63
2022/05/22 09:21:37;;;;;;;;;;;24.00;45.50;;;;;;5056624;28;19935;-63
2022/05/22 09:24:03;;;;;;;;;;;24.00;45.50;;;;;;5074447;28;20386;-63
2022/05/22 09:26:44;;;;;;;;;;;24.10;45.40;;;;;;5074602;28;20233;-63
2022/05/22 09:29:13;;;;;;;;;;;24.10;45.30;;;;;;5074513;28;19909;-63
2022/05/22 09:31:59;;;;;;;;;;;24.10;45.40;;;;;;5074389;28;20027;-63
2022/05/22 09:34:29;;;;;;;;;;;24.10;45.30;;;;;;5074325;28;19940;-64
2022/05/22 09:36:55;;;;;;;;;;;24.10;45.30;;;;;;5072905;28;19966;-64
2022/05/22 09:39:23;;;;;;;;;;;24.10;45.20;;;;;;5074519;28;19996;-64
2022/05/22 09:42:04;;;;;;;;;;;24.10;45.10;;;;;;5074163;28;20351;-63
2022/05/22 09:44:41;;;;;;;;;;;24.10;45.10;;;;;;5074089;28;19980;-63
2022/05/22 09:47:25;;;;;;;;;;;24.10;45.10;;;;;;5074334;28;20406;-64
2022/05/22 09:49:55;;;;;;;;;;;24.10;45.30;;;;;;5073974;28;20375;-63
2022/05/22 09:52:26;;;;;;;;;;;24.10;45.30;;;;;;5073971;28;19912;-64
2022/05/22 09:54:58;;;;;;;;;;;24.10;45.60;;;;;;5072558;28;20368;-64
2022/05/22 09:57:26;;;;;;;;;;;24.10;45.40;;;;;;5073820;28;19958;-63
2022/05/22 10:00:08;;;;;;;;;;;24.10;45.70;;;;;;5073660;28;19943;-63
2022/05/22 10:02:46;;;;;;;;;;;24.10;45.50;;;;;;5072477;28;20345;-63
2022/05/22 10:05:15;;;;;;;;;;;24.10;45.60;;;;;;5072382;28;20019;-63
2022/05/22 10:07:49;;;;;;;;;;;24.10;45.40;;;;;;5072768;28;19913;-63
2022/05/22 10:10:22;;;;;;;;;;;24.10;45.90;;;;;;5073624;28;19909;-63
2022/05/22 10:12:54;;;;;;;;;;;24.00;45.90;;;;;;5072327;28;20330;-63
2022/05/22 10:15:25;;;;;;;;;;;24.00;45.80;;;;;;5072334;28;19975;-63
2022/05/22 10:17:57;;;;;;;;;;;24.10;45.80;;;;;;5073456;28;19944;-63
2022/05/22 10:20:30;;;;;;;;;;;24.10;45.90;;;;;;5073432;28;20360;-63
2022/05/22 10:23:11;;;;;;;;;;;24.10;45.90;;;;;;5073512;28;20364;-63
2022/05/22 10:25:41;;;;;;;;;;;24.10;45.90;;;;;;5073479;28;20015;-63
2022/05/22 10:28:14;;;;;;;;;;;24.10;46.00;;;;;;5072150;28;19909;-63
2022/05/22 10:30:47;;;;;;;;;;;24.10;45.90;;;;;;5073363;28;20349;-63
2022/05/22 10:33:21;;;;;;;;;;;24.10;46.10;;;;;;5073581;28;19908;-63
2022/05/22 10:35:52;;;;;;;;;;;24.10;45.90;;;;;;5073236;28;19909;-63
2022/05/22 10:38:21;;;;;;;;;;;24.10;45.90;;;;;;5073494;28;19936;-63
2022/05/22 10:43:35;;;;;;;;;;;24.10;45.80;;;;;;5073175;28;20280;-64
2022/05/22 10:46:01;;;;;;;;;;;24.10;46.10;;;;;;5072037;28;19913;-63
2022/05/22 10:48:28;;;;;;;;;;;24.10;46.00;;;;;;5073125;28;19909;-63
2022/05/22 10:50:54;;;;;;;;;;;24.10;45.90;;;;;;5073280;28;19915;-63
2022/05/22 10:53:30;;;;;;;;;;;24.00;45.90;;;;;;5071925;28;20320;-63
2022/05/22 10:56:00;;;;;;;;;;;24.00;46.00;;;;;;5078024;28;19913;-63
2022/05/22 10:58:26;;;;;;;;;;;24.00;45.60;;;;;;5073301;28;19953;-63
2022/05/22 11:00:56;;;;;;;;;;;24.00;46.00;;;;;;5071588;28;19908;-63
2022/05/22 11:03:28;;;;;;;;;;;24.00;46.00;;;;;;5072644;28;20040;-63
2022/05/22 11:05:53;;;;;;;;;;;24.00;46.10;;;;;;5072938;28;20383;-63
2022/05/22 11:08:26;;;;;;;;;;;24.00;46.10;;;;;;5072126;28;19961;-63
2022/05/22 11:10:52;;;;;;;;;;;24.00;46.10;;;;;;5071492;28;19912;-63
2022/05/22 11:13:21;;;;;;;;;;;24.00;46.30;;;;;;5072863;28;20366;-63
2022/05/22 11:15:46;;;;;;;;;;;24.00;46.20;;;;;;5072658;28;19908;-63
2022/05/22 11:18:18;;;;;;;;;;;24.10;46.20;;;;;;5071498;28;20284;-63
2022/05/22 11:20:46;;;;;;;;;;;24.10;46.00;;;;;;5072755;28;20466;-63
2022/05/22 11:23:25;;;;;;;;;;;24.20;45.80;;;;;;5072691;28;19963;-63
2022/05/22 11:25:58;;;;;;;;;;;24.20;45.70;;;;;;5072912;28;19912;-63
2022/05/22 11:28:30;;;;;;;;;;;24.20;45.70;;;;;;5072863;28;19967;-63
2022/05/22 11:30:59;;;;;;;;;;;24.20;45.60;;;;;;5071339;28;19960;-63
2022/05/22 11:33:45;;;;;;;;;;;24.20;45.50;;;;;;5072562;28;19909;-64
2022/05/22 11:36:11;;;;;;;;;;;24.30;45.70;;;;;;5072504;28;19924;-64
2022/05/22 11:38:48;;;;;;;;;;;24.30;45.50;;;;;;5072931;28;20280;-63
2022/05/22 11:41:22;;;;;;;;;;;24.30;45.50;;;;;;5071457;28;19954;-63
2022/05/22 11:43:53;;;;;;;;;;;24.20;45.90;;;;;;5072400;28;19909;-63
2022/05/22 11:46:20;;;;;;;;;;;24.20;46.00;;;;;;5071272;28;19908;-63
2022/05/22 11:49:16;;;;;;;;;;;24.20;46.20;;;;;;5071311;28;19916;-63
2022/05/22 11:52:00;;;;;;;;;;;24.20;46.20;;;;;;5001318;28;19933;-63
2022/05/22 11:54:26;;;;;;;;;;;24.20;46.10;;;;;;5072434;28;19909;-63
2022/05/22 11:57:11;;;;;;;;;;;24.20;45.80;;;;;;5072415;28;19912;-63
2022/05/22 11:59:48;;;;;;;;;;;24.20;45.80;;;;;;5071329;28;19909;-63
2022/05/22 12:02:24;;;;;;;;;;;24.30;45.80;;;;;;5071178;28;19919;-63
2022/05/22 12:05:10;;;;;;;;;;;24.30;45.60;;;;;;5070881;28;19921;-63
2022/05/22 12:07:43;;;;;;;;;;;24.20;45.60;;;;;;5078622;28;19915;-63
2022/05/22 12:10:14;;;;;;;;;;;24.20;45.50;;;;;;5054836;28;19931;-63
2022/05/22 12:12:42;;;;;;;;;;;24.20;45.70;;;;;;5054501;28;19974;-63
2022/05/22 12:15:23;;;;;;;;;;;24.20;45.80;;;;;;5055638;28;19909;-63
2022/05/22 12:17:50;;;;;;;;;;;24.20;45.70;;;;;;5055632;28;19913;-63
2022/05/22 12:20:26;;;;;;;;;;;24.30;45.60;;;;;;5054349;28;19916;-63
2022/05/22 12:23:08;;;;;;;;;;;24.20;45.60;;;;;;5054441;28;19944;-63
2022/05/22 12:25:53;;;;;;;;;;;24.20;45.60;;;;;;5054216;28;19956;-63
2022/05/22 12:28:26;;;;;;;;;;;24.20;45.70;;;;;;5054143;28;20003;-64
2022/05/22 12:30:51;;;;;;;;;;;24.30;45.70;;;;;;5054276;28;20407;-64
2022/05/22 12:33:17;;;;;;;;;;;24.30;45.50;;;;;;5054128;28;19915;-63
2022/05/22 12:35:42;;;;;;;;;;;24.30;45.50;;;;;;5055308;28;20280;-64
2022/05/22 12:38:09;;;;;;;;;;;24.30;45.60;;;;;;5060336;28;19909;-64
2022/05/22 12:40:37;;;;;;;;;;;24.30;45.60;;;;;;5075342;28;19909;-63
2022/05/22 12:43:03;;;;;;;;;;;24.40;45.60;;;;;;5074265;28;20019;-63
2022/05/22 12:45:29;;;;;;;;;;;24.40;45.50;;;;;;5075500;28;20398;-63
2022/05/22 12:47:55;;;;;;;;;;;24.40;45.40;;;;;;5075187;28;19950;-63
2022/05/22 12:50:43;;;;;;;;;;;24.50;45.30;;;;;;5074854;28;19909;-64
2022/05/22 12:53:29;;;;;;;;;;;24.40;45.30;;;;;;5064256;28;20428;-64
2022/05/22 12:55:55;;;;;;;;;;;24.50;45.50;;;;;;5075236;28;20306;-63
2022/05/22 12:58:39;;;;;;;;;;;24.50;45.40;;;;;;5075084;28;19912;-63
2022/05/22 13:01:25;;;;;;;;;;;24.50;45.40;;;;;;5075024;28;20422;-63
2022/05/22 13:03:51;;;;;;;;;;;24.50;45.50;;;;;;5074755;28;19920;-63
2022/05/22 13:06:21;;;;;;;;;;;24.50;45.40;;;;;;5075024;28;19924;-63
2022/05/22 13:09:00;;;;;;;;;;;24.40;45.50;;;;;;5073893;28;19908;-63
2022/05/22 13:11:29;;;;;;;;;;;24.40;45.50;;;;;;5073657;28;19909;-63
2022/05/22 13:13:55;;;;;;;;;;;24.40;45.50;;;;;;5074725;28;19916;-63
2022/05/22 13:16:24;;;;;;;;;;;24.40;45.50;;;;;;5074727;28;19924;-63
2022/05/22 13:18:50;;;;;;;;;;;24.30;45.50;;;;;;5073282;28;19908;-63
2022/05/22 13:21:27;;;;;;;;;;;24.30;45.60;;;;;;5074656;28;19954;-63
2022/05/22 13:24:00;;;;;;;;;;;24.30;45.70;;;;;;5074612;28;19916;-63
2022/05/22 13:26:26;;;;;;;;;;;24.30;45.80;;;;;;5074621;28;19909;-63
2022/05/22 13:29:00;;;;;;;;;;;24.30;45.80;;;;;;5073256;28;19908;-63
2022/05/22 13:31:44;;;;;;;;;;;24.30;45.70;;;;;;5056547;28;20005;-63
2022/05/22 13:34:19;;;;;;;;;;;24.30;45.80;;;;;;5074382;28;19908;-63
2022/05/22 13:36:53;;;;;;;;;;;24.30;45.90;;;;;;5074274;28;19912;-63
2022/05/22 13:39:22;;;;;;;;;;;24.30;46.10;;;;;;5074695;28;19908;-63
2022/05/22 13:41:47;;;;;;;;;;;24.20;46.10;;;;;;5073186;28;19908;-63
2022/05/22 13:44:15;;;;;;;;;;;24.20;46.20;;;;;;5074132;28;19908;-63
2022/05/22 13:46:59;;;;;;;;;;;24.30;46.30;;;;;;5074148;28;19919;-63
2022/05/22 13:49:39;;;;;;;;;;;24.30;46.20;;;;;;5074095;28;20306;-63
2022/05/22 13:52:35;;;;;;;;;;;24.30;46.30;;;;;;5079561;28;19920;-63
2022/05/22 13:55:07;;;;;;;;;;;24.30;46.30;;;;;;5074047;28;20348;-63
2022/05/22 13:57:34;;;;;;;;;;;24.40;46.00;;;;;;5073856;28;19912;-63
2022/05/22 14:00:04;;;;;;;;;;;24.40;46.10;;;;;;5073885;28;19952;-63
2022/05/22 14:02:39;;;;;;;;;;;24.50;45.80;;;;;;5073896;28;19962;-63
2022/05/22 14:05:07;;;;;;;;;;;24.50;45.80;;;;;;5072278;28;19924;-63
2022/05/22 14:07:38;;;;;;;;;;;24.50;45.80;;;;;;5072487;28;20348;-63
2022/05/22 14:10:03;;;;;;;;;;;24.50;45.90;;;;;;5052466;28;20376;-63
2022/05/22 14:12:33;;;;;;;;;;;24.50;45.80;;;;;;5053680;28;19915;-63
2022/05/22 14:15:08;;;;;;;;;;;24.50;45.70;;;;;;5053734;28;20076;-63
2022/05/22 14:17:36;;;;;;;;;;;24.50;45.70;;;;;;5053583;28;19947;-63
2022/05/22 14:20:06;;;;;;;;;;;24.50;46.30;;;;;;5052230;28;20365;-63
2022/05/22 14:22:31;;;;;;;;;;;24.50;45.80;;;;;;5053549;28;19980;-63
2022/05/22 14:24:58;;;;;;;;;;;24.50;45.90;;;;;;5053476;28;19994;-63
2022/05/22 14:27:32;;;;;;;;;;;24.40;45.90;;;;;;5052244;28;19924;-63
2022/05/22 14:30:13;;;;;;;;;;;24.40;46.00;;;;;;5052109;28;19935;-63
2022/05/22 14:32:38;;;;;;;;;;;24.40;46.00;;;;;;5053206;28;19909;-63
2022/05/22 14:35:11;;;;;;;;;;;24.40;46.10;;;;;;5053344;28;20026;-63
2022/05/22 14:37:37;;;;;;;;;;;24.30;46.10;;;;;;5053941;28;19998;-63
2022/05/22 14:40:03;;;;;;;;;;;24.30;46.20;;;;;;5073133;28;19908;-63
2022/05/22 14:42:29;;;;;;;;;;;24.30;46.30;;;;;;5073166;28;19908;-63